sensor_id;sensor_type;location;lat;lon;timestamp;temperature;humidity
43049;DHT22;28673;44.412;11.918;2023-02-26T00:00:05;13.20;99.90
43049;DHT22;28673;44.412;11.918;2023-02-26T00:02:34;13.20;99.90
43049;DHT22;28673;44.412;11.918;2023-02-26T00:05:06;13.20;99.90
43049;DHT22;28673;44.412;11.918;2023-02-26T00:07:33;13.20;99.90
43049;DHT22;28673;44.412;11.918;2023-02-26T00:09:59;13.10;99.90
43049;DHT22;28673;44.412;11.918;2023-02-26T00:12:28;13.20;99.90
43049;DHT22;28673;44.412;11.918;2023-02-26T00:14:55;13.10;99.90
43049;DHT22;28673;44.412;11.918;2023-02-26T00:19:51;13.10;99.90
43049;DHT22;28673;44.412;11.918;2023-02-26T00:22:18;13.10;99.90
43049;DHT22;28673;44.412;11.918;2023-02-26T00:24:43;13.20;99.90
43049;DHT22;28673;44.412;11.918;2023-02-26T00:27:11;13.20;99.90
43049;DHT22;28673;44.412;11.918;2023-02-26T00:29:39;13.20;99.90
43049;DHT22;28673;44.412;11.918;2023-02-26T00:32:05;13.20;99.90
43049;DHT22;28673;44.412;11.918;2023-02-26T00:34:34;13.20;99.90
43049;DHT22;28673;44.412;11.918;2023-02-26T00:37:11;13.20;99.90
43049;DHT22;28673;44.412;11.918;2023-02-26T00:39:48;13.10;99.90
43049;DHT22;28673;44.412;11.918;2023-02-26T00:42:16;13.20;99.90
43049;DHT22;28673;44.412;11.918;2023-02-26T00:44:42;13.20;99.90
43049;DHT22;28673;44.412;11.918;2023-02-26T00:55:30;13.20;99.90
43049;DHT22;28673;44.412;11.918;2023-02-26T00:57:56;13.10;99.90
43049;DHT22;28673;44.412;11.918;2023-02-26T01:00:23;13.10;99.90
43049;DHT22;28673;44.412;11.918;2023-02-26T01:02:49;13.10;99.90
43049;DHT22;28673;44.412;11.918;2023-02-26T01:05:19;13.00;99.90
43049;DHT22;28673;44.412;11.918;2023-02-26T01:10:14;13.00;99.90
43049;DHT22;28673;44.412;11.918;2023-02-26T01:12:41;13.00;99.90
43049;DHT22;28673;44.412;11.918;2023-02-26T01:15:08;13.00;99.90
43049;DHT22;28673;44.412;11.918;2023-02-26T01:20:59;13.00;99.90
43049;DHT22;28673;44.412;11.918;2023-02-26T01:23:31;12.90;99.90
43049;DHT22;28673;44.412;11.918;2023-02-26T01:26:02;12.90;99.90
43049;DHT22;28673;44.412;11.918;2023-02-26T01:28:31;12.90;99.90
43049;DHT22;28673;44.412;11.918;2023-02-26T01:31:00;12.90;99.90
43049;DHT22;28673;44.412;11.918;2023-02-26T01:33:44;12.80;99.90
43049;DHT22;28673;44.412;11.918;2023-02-26T01:36:16;12.80;99.90
43049;DHT22;28673;44.412;11.918;2023-02-26T01:38:59;12.80;99.90
43049;DHT22;28673;44.412;11.918;2023-02-26T01:41:42;12.70;99.90
43049;DHT22;28673;44.412;11.918;2023-02-26T01:49:33;12.60;99.90
43049;DHT22;28673;44.412;11.918;2023-02-26T01:52:59;12.50;99.90
43049;DHT22;28673;44.412;11.918;2023-02-26T01:54:58;12.50;99.90
43049;DHT22;28673;44.412;11.918;2023-02-26T01:57:24;12.40;99.90
43049;DHT22;28673;44.412;11.918;2023-02-26T01:59:51;12.40;99.90
43049;DHT22;28673;44.412;11.918;2023-02-26T02:43:21;12.10;99.90
43049;DHT22;28673;44.412;11.918;2023-02-26T02:46:02;12.10;99.90
43049;DHT22;28673;44.412;11.918;2023-02-26T02:48:35;12.10;99.90
43049;DHT22;28673;44.412;11.918;2023-02-26T02:53:43;12.10;99.90
43049;DHT22;28673;44.412;11.918;2023-02-26T02:59:14;12.10;99.90
43049;DHT22;28673;44.412;11.918;2023-02-26T03:01:42;12.10;99.90
43049;DHT22;28673;44.412;11.918;2023-02-26T03:04:12;12.10;99.90
43049;DHT22;28673;44.412;11.918;2023-02-26T03:06:40;12.10;99.90
43049;DHT22;28673;44.412;11.918;2023-02-26T03:09:08;12.10;99.90
43049;DHT22;28673;44.412;11.918;2023-02-26T03:11:34;12.10;99.90
43049;DHT22;28673;44.412;11.918;2023-02-26T03:14:01;12.20;99.90
43049;DHT22;28673;44.412;11.918;2023-02-26T03:33:59;12.20;99.90
43049;DHT22;28673;44.412;11.918;2023-02-26T03:39:24;12.20;99.90
43049;DHT22;28673;44.412;11.918;2023-02-26T03:42:02;12.20;99.90
43049;DHT22;28673;44.412;11.918;2023-02-26T03:45:01;12.20;99.90
43049;DHT22;28673;44.412;11.918;2023-02-26T03:47:31;12.20;99.90
43049;DHT22;28673;44.412;11.918;2023-02-26T03:50:22;12.20;99.90
43049;DHT22;28673;44.412;11.918;2023-02-26T03:53:05;12.20;99.90
43049;DHT22;28673;44.412;11.918;2023-02-26T03:55:52;12.10;99.90
43049;DHT22;28673;44.412;11.918;2023-02-26T03:58:46;11.80;99.90
43049;DHT22;28673;44.412;11.918;2023-02-26T04:01:28;11.30;99.90
43049;DHT22;28673;44.412;11.918;2023-02-26T04:04:41;11.10;99.90
43049;DHT22;28673;44.412;11.918;2023-02-26T04:07:11;10.80;99.90
43049;DHT22;28673;44.412;11.918;2023-02-26T04:09:45;10.60;99.90
43049;DHT22;28673;44.412;11.918;2023-02-26T04:12:12;10.50;99.90
43049;DHT22;28673;44.412;11.918;2023-02-26T04:14:42;10.40;99.90
43049;DHT22;28673;44.412;11.918;2023-02-26T04:17:08;10.20;99.90
43049;DHT22;28673;44.412;11.918;2023-02-26T04:19:34;10.00;99.90
43049;DHT22;28673;44.412;11.918;2023-02-26T04:22:01;9.90;99.90
43049;DHT22;28673;44.412;11.918;2023-02-26T04:24:26;9.70;99.90
43049;DHT22;28673;44.412;11.918;2023-02-26T04:26:56;9.60;99.90
43049;DHT22;28673;44.412;11.918;2023-02-26T04:29:22;9.40;99.90
43049;DHT22;28673;44.412;11.918;2023-02-26T04:31:48;9.30;99.90
43049;DHT22;28673;44.412;11.918;2023-02-26T04:34:14;9.20;99.90
43049;DHT22;28673;44.412;11.918;2023-02-26T04:36:40;9.00;99.90
43049;DHT22;28673;44.412;11.918;2023-02-26T04:39:07;9.00;99.90
43049;DHT22;28673;44.412;11.918;2023-02-26T04:41:36;8.90;99.90
43049;DHT22;28673;44.412;11.918;2023-02-26T04:44:02;8.80;99.90
43049;DHT22;28673;44.412;11.918;2023-02-26T04:46:30;8.80;99.90
43049;DHT22;28673;44.412;11.918;2023-02-26T04:48:57;8.70;99.90
43049;DHT22;28673;44.412;11.918;2023-02-26T04:51:24;8.60;99.90
43049;DHT22;28673;44.412;11.918;2023-02-26T04:53:51;8.50;99.90
43049;DHT22;28673;44.412;11.918;2023-02-26T04:56:17;8.50;99.90
43049;DHT22;28673;44.412;11.918;2023-02-26T04:58:44;8.40;99.90
43049;DHT22;28673;44.412;11.918;2023-02-26T05:01:19;8.30;99.90
43049;DHT22;28673;44.412;11.918;2023-02-26T05:03:44;8.30;99.90
43049;DHT22;28673;44.412;11.918;2023-02-26T05:06:10;8.20;99.90
43049;DHT22;28673;44.412;11.918;2023-02-26T05:08:36;8.20;99.90
43049;DHT22;28673;44.412;11.918;2023-02-26T05:11:07;8.20;99.90
43049;DHT22;28673;44.412;11.918;2023-02-26T05:13:32;8.10;99.90
43049;DHT22;28673;44.412;11.918;2023-02-26T05:16:00;8.10;99.90
43049;DHT22;28673;44.412;11.918;2023-02-26T05:18:26;8.00;99.90
43049;DHT22;28673;44.412;11.918;2023-02-26T05:20:53;7.90;99.90
43049;DHT22;28673;44.412;11.918;2023-02-26T05:23:19;7.90;99.90
43049;DHT22;28673;44.412;11.918;2023-02-26T05:25:46;7.80;99.90
43049;DHT22;28673;44.412;11.918;2023-02-26T05:28:14;7.80;99.90
43049;DHT22;28673;44.412;11.918;2023-02-26T05:30:40;7.70;99.90
43049;DHT22;28673;44.412;11.918;2023-02-26T05:33:07;7.60;99.90
43049;DHT22;28673;44.412;11.918;2023-02-26T05:35:32;7.60;99.90
43049;DHT22;28673;44.412;11.918;2023-02-26T05:37:58;7.60;99.90
43049;DHT22;28673;44.412;11.918;2023-02-26T05:40:24;7.50;99.90
43049;DHT22;28673;44.412;11.918;2023-02-26T05:42:50;7.50;99.90
43049;DHT22;28673;44.412;11.918;2023-02-26T05:45:17;7.40;99.90
43049;DHT22;28673;44.412;11.918;2023-02-26T05:47:43;7.40;99.90
43049;DHT22;28673;44.412;11.918;2023-02-26T05:50:09;7.40;99.90
43049;DHT22;28673;44.412;11.918;2023-02-26T05:52:36;7.30;99.90
43049;DHT22;28673;44.412;11.918;2023-02-26T05:55:02;7.30;99.90
43049;DHT22;28673;44.412;11.918;2023-02-26T05:57:28;7.30;99.90
43049;DHT22;28673;44.412;11.918;2023-02-26T05:59:54;7.30;99.90
43049;DHT22;28673;44.412;11.918;2023-02-26T06:02:20;7.30;99.90
43049;DHT22;28673;44.412;11.918;2023-02-26T06:04:46;7.30;99.90
43049;DHT22;28673;44.412;11.918;2023-02-26T06:07:12;7.20;99.90
43049;DHT22;28673;44.412;11.918;2023-02-26T06:09:38;7.20;99.90
43049;DHT22;28673;44.412;11.918;2023-02-26T06:12:05;7.20;99.90
43049;DHT22;28673;44.412;11.918;2023-02-26T06:14:31;7.20;99.90
43049;DHT22;28673;44.412;11.918;2023-02-26T06:16:57;7.20;99.90
43049;DHT22;28673;44.412;11.918;2023-02-26T06:19:23;7.20;99.90
43049;DHT22;28673;44.412;11.918;2023-02-26T06:21:49;7.20;99.90
43049;DHT22;28673;44.412;11.918;2023-02-26T06:24:15;7.20;99.90
43049;DHT22;28673;44.412;11.918;2023-02-26T06:26:41;7.10;99.90
43049;DHT22;28673;44.412;11.918;2023-02-26T06:29:07;7.10;99.90
43049;DHT22;28673;44.412;11.918;2023-02-26T06:31:33;7.10;99.90
43049;DHT22;28673;44.412;11.918;2023-02-26T06:33:59;7.10;99.90
43049;DHT22;28673;44.412;11.918;2023-02-26T06:36:25;7.10;99.90
43049;DHT22;28673;44.412;11.918;2023-02-26T06:38:51;7.10;99.90
43049;DHT22;28673;44.412;11.918;2023-02-26T06:41:17;7.10;99.90
43049;DHT22;28673;44.412;11.918;2023-02-26T06:43:43;7.10;99.90
43049;DHT22;28673;44.412;11.918;2023-02-26T06:46:09;7.10;99.90
43049;DHT22;28673;44.412;11.918;2023-02-26T06:48:35;7.10;99.90
43049;DHT22;28673;44.412;11.918;2023-02-26T06:51:01;7.10;99.90
43049;DHT22;28673;44.412;11.918;2023-02-26T06:53:27;7.10;99.90
43049;DHT22;28673;44.412;11.918;2023-02-26T06:55:53;7.10;99.90
43049;DHT22;28673;44.412;11.918;2023-02-26T06:58:19;7.10;99.90
43049;DHT22;28673;44.412;11.918;2023-02-26T07:00:45;7.10;99.90
43049;DHT22;28673;44.412;11.918;2023-02-26T07:03:13;7.10;99.90
43049;DHT22;28673;44.412;11.918;2023-02-26T07:05:40;7.20;99.90
43049;DHT22;28673;44.412;11.918;2023-02-26T07:08:07;7.20;99.90
43049;DHT22;28673;44.412;11.918;2023-02-26T07:10:34;7.20;99.90
43049;DHT22;28673;44.412;11.918;2023-02-26T07:13:01;7.30;99.90
43049;DHT22;28673;44.412;11.918;2023-02-26T07:15:27;7.20;99.90
43049;DHT22;28673;44.412;11.918;2023-02-26T07:17:53;7.20;99.90
43049;DHT22;28673;44.412;11.918;2023-02-26T07:20:19;7.20;99.90
43049;DHT22;28673;44.412;11.918;2023-02-26T07:22:45;7.20;99.90
43049;DHT22;28673;44.412;11.918;2023-02-26T07:25:11;7.20;99.90
43049;DHT22;28673;44.412;11.918;2023-02-26T07:27:38;7.20;99.90
43049;DHT22;28673;44.412;11.918;2023-02-26T07:30:05;7.20;99.90
43049;DHT22;28673;44.412;11.918;2023-02-26T07:32:32;7.20;99.90
43049;DHT22;28673;44.412;11.918;2023-02-26T07:34:58;7.20;99.90
43049;DHT22;28673;44.412;11.918;2023-02-26T07:37:24;7.20;99.90
43049;DHT22;28673;44.412;11.918;2023-02-26T07:39:50;7.20;99.90
43049;DHT22;28673;44.412;11.918;2023-02-26T07:42:17;7.30;99.90
43049;DHT22;28673;44.412;11.918;2023-02-26T07:44:43;7.30;99.90
43049;DHT22;28673;44.412;11.918;2023-02-26T07:47:09;7.30;99.90
43049;DHT22;28673;44.412;11.918;2023-02-26T07:49:36;7.30;99.90
43049;DHT22;28673;44.412;11.918;2023-02-26T07:52:02;7.30;99.90
43049;DHT22;28673;44.412;11.918;2023-02-26T07:54:28;7.30;99.90
43049;DHT22;28673;44.412;11.918;2023-02-26T07:56:54;7.20;99.90
43049;DHT22;28673;44.412;11.918;2023-02-26T07:59:20;7.20;99.90
43049;DHT22;28673;44.412;11.918;2023-02-26T08:01:46;7.10;99.90
43049;DHT22;28673;44.412;11.918;2023-02-26T08:04:12;7.10;99.90
43049;DHT22;28673;44.412;11.918;2023-02-26T08:06:38;7.10;99.90
43049;DHT22;28673;44.412;11.918;2023-02-26T08:09:04;7.10;99.90
43049;DHT22;28673;44.412;11.918;2023-02-26T08:11:31;7.10;99.90
43049;DHT22;28673;44.412;11.918;2023-02-26T08:14:05;7.00;99.90
43049;DHT22;28673;44.412;11.918;2023-02-26T08:16:31;7.00;99.90
43049;DHT22;28673;44.412;11.918;2023-02-26T08:18:57;7.00;99.90
43049;DHT22;28673;44.412;11.918;2023-02-26T08:21:23;7.00;99.90
43049;DHT22;28673;44.412;11.918;2023-02-26T08:23:52;7.10;99.90
43049;DHT22;28673;44.412;11.918;2023-02-26T08:26:18;7.10;99.90
43049;DHT22;28673;44.412;11.918;2023-02-26T08:28:44;7.10;99.90
43049;DHT22;28673;44.412;11.918;2023-02-26T08:31:13;7.10;99.90
43049;DHT22;28673;44.412;11.918;2023-02-26T08:33:39;7.10;99.90
43049;DHT22;28673;44.412;11.918;2023-02-26T08:36:06;7.20;99.90
43049;DHT22;28673;44.412;11.918;2023-02-26T08:38:32;7.20;99.90
43049;DHT22;28673;44.412;11.918;2023-02-26T08:40:58;7.20;99.90
43049;DHT22;28673;44.412;11.918;2023-02-26T08:43:25;7.20;99.90
43049;DHT22;28673;44.412;11.918;2023-02-26T08:45:52;7.20;99.90
43049;DHT22;28673;44.412;11.918;2023-02-26T08:48:18;7.20;99.90
43049;DHT22;28673;44.412;11.918;2023-02-26T08:50:44;7.20;99.90
43049;DHT22;28673;44.412;11.918;2023-02-26T08:53:09;7.30;99.90
43049;DHT22;28673;44.412;11.918;2023-02-26T08:55:36;7.30;99.90
43049;DHT22;28673;44.412;11.918;2023-02-26T08:58:02;7.20;99.90
43049;DHT22;28673;44.412;11.918;2023-02-26T09:00:28;7.30;99.90
43049;DHT22;28673;44.412;11.918;2023-02-26T09:02:54;7.30;99.90
43049;DHT22;28673;44.412;11.918;2023-02-26T09:05:20;7.20;99.90
43049;DHT22;28673;44.412;11.918;2023-02-26T09:07:47;7.20;99.90
43049;DHT22;28673;44.412;11.918;2023-02-26T09:10:14;7.20;99.90
43049;DHT22;28673;44.412;11.918;2023-02-26T09:12:40;7.20;99.90
43049;DHT22;28673;44.412;11.918;2023-02-26T09:15:07;7.20;99.90
43049;DHT22;28673;44.412;11.918;2023-02-26T09:17:34;7.20;99.90
43049;DHT22;28673;44.412;11.918;2023-02-26T09:20:00;7.20;99.90
43049;DHT22;28673;44.412;11.918;2023-02-26T09:22:30;7.30;99.90
43049;DHT22;28673;44.412;11.918;2023-02-26T09:24:56;7.20;99.90
43049;DHT22;28673;44.412;11.918;2023-02-26T09:27:25;7.30;99.90
43049;DHT22;28673;44.412;11.918;2023-02-26T09:29:51;7.30;99.90
43049;DHT22;28673;44.412;11.918;2023-02-26T09:32:19;7.30;99.90
43049;DHT22;28673;44.412;11.918;2023-02-26T09:34:49;7.20;99.90
43049;DHT22;28673;44.412;11.918;2023-02-26T09:37:15;7.20;99.90
43049;DHT22;28673;44.412;11.918;2023-02-26T09:39:42;7.10;99.90
43049;DHT22;28673;44.412;11.918;2023-02-26T09:42:22;7.10;99.90
43049;DHT22;28673;44.412;11.918;2023-02-26T09:44:50;7.10;99.90
43049;DHT22;28673;44.412;11.918;2023-02-26T09:47:45;7.10;99.90
43049;DHT22;28673;44.412;11.918;2023-02-26T09:50:18;7.10;99.90
43049;DHT22;28673;44.412;11.918;2023-02-26T09:55:41;7.20;99.90
43049;DHT22;28673;44.412;11.918;2023-02-26T10:00:52;7.20;99.90
43049;DHT22;28673;44.412;11.918;2023-02-26T10:06:20;7.20;99.90
43049;DHT22;28673;44.412;11.918;2023-02-26T10:14:15;7.20;99.90
43049;DHT22;28673;44.412;11.918;2023-02-26T10:16:48;7.20;99.90
43049;DHT22;28673;44.412;11.918;2023-02-26T10:19:18;7.20;99.90
43049;DHT22;28673;44.412;11.918;2023-02-26T10:24:30;7.10;99.90
43049;DHT22;28673;44.412;11.918;2023-02-26T10:27:08;7.10;99.90
43049;DHT22;28673;44.412;11.918;2023-02-26T10:30:02;7.00;99.90
43049;DHT22;28673;44.412;11.918;2023-02-26T10:32:46;6.90;99.90
43049;DHT22;28673;44.412;11.918;2023-02-26T10:35:16;6.90;99.90
43049;DHT22;28673;44.412;11.918;2023-02-26T10:38:00;6.90;99.90
43049;DHT22;28673;44.412;11.918;2023-02-26T10:42:59;6.80;99.90
43049;DHT22;28673;44.412;11.918;2023-02-26T10:52:23;6.80;99.90
43049;DHT22;28673;44.412;11.918;2023-02-26T10:55:14;6.90;99.90
43049;DHT22;28673;44.412;11.918;2023-02-26T11:00:28;6.80;99.90
43049;DHT22;28673;44.412;11.918;2023-02-26T11:02:55;6.80;99.90
43049;DHT22;28673;44.412;11.918;2023-02-26T11:05:26;6.80;99.90
43049;DHT22;28673;44.412;11.918;2023-02-26T11:08:15;6.80;99.90
43049;DHT22;28673;44.412;11.918;2023-02-26T11:13:18;6.70;99.90
43049;DHT22;28673;44.412;11.918;2023-02-26T11:15:48;6.80;99.90
43049;DHT22;28673;44.412;11.918;2023-02-26T11:18:22;6.80;99.90
43049;DHT22;28673;44.412;11.918;2023-02-26T11:20:53;6.90;99.90
43049;DHT22;28673;44.412;11.918;2023-02-26T11:23:21;6.90;99.90
43049;DHT22;28673;44.412;11.918;2023-02-26T11:25:53;7.00;99.90
43049;DHT22;28673;44.412;11.918;2023-02-26T11:28:28;7.00;99.90
43049;DHT22;28673;44.412;11.918;2023-02-26T11:30:54;7.00;99.90
43049;DHT22;28673;44.412;11.918;2023-02-26T11:33:23;7.00;99.90
43049;DHT22;28673;44.412;11.918;2023-02-26T11:35:51;7.00;99.90
43049;DHT22;28673;44.412;11.918;2023-02-26T11:38:21;7.10;99.90
43049;DHT22;28673;44.412;11.918;2023-02-26T11:40:54;7.00;99.90
43049;DHT22;28673;44.412;11.918;2023-02-26T11:43:22;6.90;99.90
43049;DHT22;28673;44.412;11.918;2023-02-26T11:45:57;6.90;99.90
43049;DHT22;28673;44.412;11.918;2023-02-26T11:48:47;6.90;99.90
43049;DHT22;28673;44.412;11.918;2023-02-26T11:51:23;6.90;99.90
43049;DHT22;28673;44.412;11.918;2023-02-26T11:53:54;6.90;99.90
43049;DHT22;28673;44.412;11.918;2023-02-26T11:56:40;6.90;99.90
43049;DHT22;28673;44.412;11.918;2023-02-26T11:59:22;6.90;99.90
43049;DHT22;28673;44.412;11.918;2023-02-26T12:01:49;6.90;99.90
43049;DHT22;28673;44.412;11.918;2023-02-26T12:04:24;7.00;99.90
43049;DHT22;28673;44.412;11.918;2023-02-26T12:06:52;6.90;99.90
43049;DHT22;28673;44.412;11.918;2023-02-26T12:09:19;7.00;99.90
43049;DHT22;28673;44.412;11.918;2023-02-26T12:20:39;6.80;99.90
43049;DHT22;28673;44.412;11.918;2023-02-26T12:28:40;6.70;99.90
43049;DHT22;28673;44.412;11.918;2023-02-26T12:34:20;6.60;99.90
43049;DHT22;28673;44.412;11.918;2023-02-26T12:59:06;6.50;99.90
43049;DHT22;28673;44.412;11.918;2023-02-26T13:05:40;6.30;99.90
43049;DHT22;28673;44.412;11.918;2023-02-26T13:07:48;6.30;99.90
43049;DHT22;28673;44.412;11.918;2023-02-26T13:13:17;6.10;99.90
43049;DHT22;28673;44.412;11.918;2023-02-26T13:18:57;6.00;99.90
43049;DHT22;28673;44.412;11.918;2023-02-26T13:21:28;5.90;99.90
43049;DHT22;28673;44.412;11.918;2023-02-26T13:24:42;5.80;99.90
43049;DHT22;28673;44.412;11.918;2023-02-26T13:26:47;5.80;99.90
43049;DHT22;28673;44.412;11.918;2023-02-26T13:29:24;5.80;99.90
43049;DHT22;28673;44.412;11.918;2023-02-26T13:32:01;5.80;99.90
43049;DHT22;28673;44.412;11.918;2023-02-26T13:34:45;5.80;99.90
43049;DHT22;28673;44.412;11.918;2023-02-26T13:37:23;5.70;99.90
43049;DHT22;28673;44.412;11.918;2023-02-26T13:40:22;5.70;99.90
43049;DHT22;28673;44.412;11.918;2023-02-26T13:45:44;5.70;99.90
43049;DHT22;28673;44.412;11.918;2023-02-26T13:51:12;5.60;99.90
43049;DHT22;28673;44.412;11.918;2023-02-26T14:01:55;5.60;99.90
43049;DHT22;28673;44.412;11.918;2023-02-26T14:04:25;5.60;99.90
43049;DHT22;28673;44.412;11.918;2023-02-26T14:07:03;5.60;99.90
43049;DHT22;28673;44.412;11.918;2023-02-26T14:09:42;5.60;99.90
43049;DHT22;28673;44.412;11.918;2023-02-26T14:12:39;5.60;99.90
43049;DHT22;28673;44.412;11.918;2023-02-26T14:17:49;5.60;99.90
43049;DHT22;28673;44.412;11.918;2023-02-26T14:20:22;5.60;99.90
43049;DHT22;28673;44.412;11.918;2023-02-26T14:25:38;5.60;99.90
43049;DHT22;28673;44.412;11.918;2023-02-26T14:28:44;5.60;99.90
43049;DHT22;28673;44.412;11.918;2023-02-26T14:34:24;5.60;99.90
43049;DHT22;28673;44.412;11.918;2023-02-26T14:38:57;5.50;99.90
43049;DHT22;28673;44.412;11.918;2023-02-26T14:41:35;5.40;99.90
43049;DHT22;28673;44.412;11.918;2023-02-26T14:44:25;5.40;99.90
43049;DHT22;28673;44.412;11.918;2023-02-26T14:46:52;5.40;99.90
43049;DHT22;28673;44.412;11.918;2023-02-26T14:49:31;5.40;99.90
43049;DHT22;28673;44.412;11.918;2023-02-26T15:04:02;5.50;99.90
43049;DHT22;28673;44.412;11.918;2023-02-26T15:20:57;5.40;99.90
43049;DHT22;28673;44.412;11.918;2023-02-26T15:23:48;5.30;99.90
43049;DHT22;28673;44.412;11.918;2023-02-26T15:28:43;5.30;99.90
43049;DHT22;28673;44.412;11.918;2023-02-26T15:31:11;5.30;99.90
43049;DHT22;28673;44.412;11.918;2023-02-26T15:33:38;5.30;99.90
43049;DHT22;28673;44.412;11.918;2023-02-26T15:36:12;5.30;99.90
43049;DHT22;28673;44.412;11.918;2023-02-26T15:38:45;5.40;99.90
43049;DHT22;28673;44.412;11.918;2023-02-26T15:41:12;5.40;99.90
43049;DHT22;28673;44.412;11.918;2023-02-26T15:43:43;5.40;99.90
43049;DHT22;28673;44.412;11.918;2023-02-26T15:46:10;5.40;99.90
43049;DHT22;28673;44.412;11.918;2023-02-26T15:48:39;5.50;99.90
43049;DHT22;28673;44.412;11.918;2023-02-26T15:51:12;5.40;99.90
43049;DHT22;28673;44.412;11.918;2023-02-26T15:53:52;5.50;99.90
43049;DHT22;28673;44.412;11.918;2023-02-26T15:56:25;5.40;99.90
43049;DHT22;28673;44.412;11.918;2023-02-26T15:58:57;5.40;99.90
43049;DHT22;28673;44.412;11.918;2023-02-26T16:01:25;5.40;99.90
43049;DHT22;28673;44.412;11.918;2023-02-26T16:03:55;5.40;99.90
43049;DHT22;28673;44.412;11.918;2023-02-26T16:06:36;5.40;99.90
43049;DHT22;28673;44.412;11.918;2023-02-26T16:09:07;5.40;99.90
43049;DHT22;28673;44.412;11.918;2023-02-26T16:11:38;5.40;99.90
43049;DHT22;28673;44.412;11.918;2023-02-26T16:14:12;5.40;99.90
43049;DHT22;28673;44.412;11.918;2023-02-26T16:16:44;5.40;99.90
43049;DHT22;28673;44.412;11.918;2023-02-26T16:19:14;5.40;99.90
43049;DHT22;28673;44.412;11.918;2023-02-26T16:21:41;5.40;99.90
43049;DHT22;28673;44.412;11.918;2023-02-26T16:24:16;5.50;99.90
43049;DHT22;28673;44.412;11.918;2023-02-26T16:26:49;5.50;99.90
43049;DHT22;28673;44.412;11.918;2023-02-26T16:29:23;5.50;99.90
43049;DHT22;28673;44.412;11.918;2023-02-26T16:31:57;5.60;99.90
43049;DHT22;28673;44.412;11.918;2023-02-26T16:34:42;5.60;99.90
43049;DHT22;28673;44.412;11.918;2023-02-26T16:37:17;5.60;99.90
43049;DHT22;28673;44.412;11.918;2023-02-26T16:39:45;5.60;99.90
43049;DHT22;28673;44.412;11.918;2023-02-26T16:42:59;5.60;99.90
43049;DHT22;28673;44.412;11.918;2023-02-26T16:47:49;5.60;99.90
43049;DHT22;28673;44.412;11.918;2023-02-26T16:50:19;5.50;99.90
43049;DHT22;28673;44.412;11.918;2023-02-26T16:55:31;5.50;99.90
43049;DHT22;28673;44.412;11.918;2023-02-26T16:57:59;5.40;99.90
43049;DHT22;28673;44.412;11.918;2023-02-26T17:00:28;5.40;99.90
43049;DHT22;28673;44.412;11.918;2023-02-26T17:03:17;5.40;99.90
43049;DHT22;28673;44.412;11.918;2023-02-26T17:05:59;5.40;99.90
43049;DHT22;28673;44.412;11.918;2023-02-26T17:08:40;5.30;99.90
43049;DHT22;28673;44.412;11.918;2023-02-26T17:11:08;5.30;99.90
43049;DHT22;28673;44.412;11.918;2023-02-26T17:13:42;5.30;99.90
43049;DHT22;28673;44.412;11.918;2023-02-26T17:16:11;5.40;99.90
43049;DHT22;28673;44.412;11.918;2023-02-26T17:18:37;5.30;99.90
43049;DHT22;28673;44.412;11.918;2023-02-26T17:21:04;5.40;99.90
43049;DHT22;28673;44.412;11.918;2023-02-26T17:23:32;5.40;99.90
43049;DHT22;28673;44.412;11.918;2023-02-26T17:26:02;5.40;99.90
43049;DHT22;28673;44.412;11.918;2023-02-26T17:28:34;5.40;99.90
43049;DHT22;28673;44.412;11.918;2023-02-26T17:31:02;5.40;99.90
43049;DHT22;28673;44.412;11.918;2023-02-26T17:33:28;5.30;99.90
43049;DHT22;28673;44.412;11.918;2023-02-26T17:36:03;5.20;99.90
43049;DHT22;28673;44.412;11.918;2023-02-26T17:38:29;5.20;99.90
43049;DHT22;28673;44.412;11.918;2023-02-26T17:40:58;5.30;99.90
43049;DHT22;28673;44.412;11.918;2023-02-26T17:43:26;5.30;99.90
43049;DHT22;28673;44.412;11.918;2023-02-26T17:45:52;5.30;99.90
43049;DHT22;28673;44.412;11.918;2023-02-26T17:48:18;5.30;99.90
43049;DHT22;28673;44.412;11.918;2023-02-26T17:53:15;5.30;99.90
43049;DHT22;28673;44.412;11.918;2023-02-26T17:55:41;5.40;99.90
43049;DHT22;28673;44.412;11.918;2023-02-26T17:58:17;5.40;99.90
43049;DHT22;28673;44.412;11.918;2023-02-26T18:00:44;5.40;99.90
43049;DHT22;28673;44.412;11.918;2023-02-26T18:03:14;5.40;99.90
43049;DHT22;28673;44.412;11.918;2023-02-26T18:05:40;5.40;99.90
43049;DHT22;28673;44.412;11.918;2023-02-26T18:08:23;5.50;99.90
43049;DHT22;28673;44.412;11.918;2023-02-26T18:10:50;5.40;99.90
43049;DHT22;28673;44.412;11.918;2023-02-26T18:13:16;5.50;99.90
43049;DHT22;28673;44.412;11.918;2023-02-26T18:15:42;5.50;99.90
43049;DHT22;28673;44.412;11.918;2023-02-26T18:18:10;5.50;99.90
43049;DHT22;28673;44.412;11.918;2023-02-26T18:20:38;5.50;99.90
43049;DHT22;28673;44.412;11.918;2023-02-26T18:23:03;5.50;99.90
43049;DHT22;28673;44.412;11.918;2023-02-26T18:25:32;5.50;99.90
43049;DHT22;28673;44.412;11.918;2023-02-26T18:28:00;5.50;99.90
43049;DHT22;28673;44.412;11.918;2023-02-26T18:30:31;5.50;99.90
43049;DHT22;28673;44.412;11.918;2023-02-26T18:32:57;5.50;99.90
43049;DHT22;28673;44.412;11.918;2023-02-26T18:35:25;5.50;99.90
43049;DHT22;28673;44.412;11.918;2023-02-26T18:37:53;5.60;99.90
43049;DHT22;28673;44.412;11.918;2023-02-26T18:40:21;5.60;99.90
43049;DHT22;28673;44.412;11.918;2023-02-26T18:42:48;5.60;99.90
43049;DHT22;28673;44.412;11.918;2023-02-26T18:45:15;5.60;99.90
43049;DHT22;28673;44.412;11.918;2023-02-26T18:47:41;5.60;99.90
43049;DHT22;28673;44.412;11.918;2023-02-26T18:50:10;5.60;99.90
43049;DHT22;28673;44.412;11.918;2023-02-26T18:52:36;5.60;99.90
43049;DHT22;28673;44.412;11.918;2023-02-26T18:55:02;5.60;99.90
43049;DHT22;28673;44.412;11.918;2023-02-26T18:57:29;5.60;99.90
43049;DHT22;28673;44.412;11.918;2023-02-26T18:59:55;5.60;99.90
43049;DHT22;28673;44.412;11.918;2023-02-26T19:02:21;5.60;99.90
43049;DHT22;28673;44.412;11.918;2023-02-26T19:04:47;5.50;99.90
43049;DHT22;28673;44.412;11.918;2023-02-26T19:07:14;5.50;99.90
43049;DHT22;28673;44.412;11.918;2023-02-26T19:09:40;5.50;99.90
43049;DHT22;28673;44.412;11.918;2023-02-26T19:12:07;5.50;99.90
43049;DHT22;28673;44.412;11.918;2023-02-26T19:14:34;5.50;99.90
43049;DHT22;28673;44.412;11.918;2023-02-26T19:17:00;5.50;99.90
43049;DHT22;28673;44.412;11.918;2023-02-26T19:19:26;5.50;99.90
43049;DHT22;28673;44.412;11.918;2023-02-26T19:21:52;5.50;99.90
43049;DHT22;28673;44.412;11.918;2023-02-26T19:24:18;5.50;99.90
43049;DHT22;28673;44.412;11.918;2023-02-26T19:26:44;5.50;99.90
43049;DHT22;28673;44.412;11.918;2023-02-26T19:29:15;5.50;99.90
43049;DHT22;28673;44.412;11.918;2023-02-26T19:31:42;5.50;99.90
43049;DHT22;28673;44.412;11.918;2023-02-26T19:34:08;5.50;99.90
43049;DHT22;28673;44.412;11.918;2023-02-26T19:36:34;5.50;99.90